Time;durP1;ratioP1;P1;durP2;ratioP2;P2;SDS_P1;SDS_P2;PMS_P1;PMS_P2;Temp;Humidity;BMP_temperature;BMP_pressure;BME280_temperature;BME280_humidity;BME280_pressure;Samples;Min_cycle;Max_cycle;Signal;HPM_P1;HPM_P2
2023/06/17 00:01:17;;;;;;;4.95;2.63;;;15.40;99.90;;;;;;5117016;27;20027;-75
2023/06/17 00:03:43;;;;;;;4.18;2.95;;;15.40;99.90;;;;;;5116639;27;20472;-74
2023/06/17 00:06:10;;;;;;;4.28;2.85;;;15.40;99.90;;;;;;5135043;27;20045;-74
2023/06/17 00:08:36;;;;;;;6.05;2.75;;;15.40;99.90;;;;;;5117047;27;20062;-74
2023/06/17 00:11:02;;;;;;;3.47;2.88;;;15.30;99.90;;;;;;5134716;27;20479;-74
2023/06/17 00:13:28;;;;;;;4.63;2.67;;;15.30;99.90;;;;;;5134912;27;20102;-75
2023/06/17 00:15:56;;;;;;;3.20;2.90;;;15.20;99.90;;;;;;5135401;27;20035;-74
2023/06/17 00:18:24;;;;;;;5.90;2.88;;;15.20;99.90;;;;;;5135165;27;20452;-74
2023/06/17 00:20:53;;;;;;;2.80;2.22;;;15.20;99.90;;;;;;5134540;27;20500;-74
2023/06/17 00:23:23;;;;;;;4.93;3.10;;;15.20;99.90;;;;;;5116331;28;20046;-74
2023/06/17 00:25:49;;;;;;;4.65;3.25;;;15.20;99.90;;;;;;5135095;27;20043;-74
2023/06/17 00:28:15;;;;;;;3.80;2.83;;;15.20;99.90;;;;;;5134999;27;20079;-75
2023/06/17 00:30:42;;;;;;;4.32;3.33;;;15.20;99.90;;;;;;5134749;28;20122;-74
2023/06/17 00:33:08;;;;;;;4.05;3.00;;;15.20;99.90;;;;;;5134615;27;20073;-74
2023/06/17 00:35:35;;;;;;;5.20;2.60;;;15.20;99.90;;;;;;5134685;28;20060;-74
2023/06/17 00:38:00;;;;;;;4.40;3.60;;;15.10;99.90;;;;;;5134657;28;20184;-74
2023/06/17 00:40:26;;;;;;;5.75;3.17;;;15.10;99.90;;;;;;5134649;28;20528;-74
2023/06/17 00:42:52;;;;;;;4.05;3.17;;;15.10;99.90;;;;;;5134565;28;20031;-75
2023/06/17 00:45:18;;;;;;;6.70;3.20;;;15.00;99.90;;;;;;5116119;28;20491;-74
2023/06/17 00:47:43;;;;;;;4.75;3.38;;;15.00;99.90;;;;;;5134574;28;20046;-75
2023/06/17 00:50:12;;;;;;;3.92;3.13;;;14.90;99.90;;;;;;5135082;28;20076;-74
2023/06/17 00:52:39;;;;;;;9.05;3.55;;;14.90;99.90;;;;;;5134583;28;20054;-74
2023/06/17 00:55:06;;;;;;;3.95;3.17;;;14.90;99.90;;;;;;5134508;28;20027;-74
2023/06/17 00:57:33;;;;;;;6.80;3.65;;;14.90;99.90;;;;;;5134800;28;20031;-74
2023/06/17 00:59:59;;;;;;;4.88;3.35;;;14.80;99.90;;;;;;5134432;28;20473;-74
2023/06/17 01:02:26;;;;;;;5.15;3.50;;;14.80;99.90;;;;;;5134613;28;20039;-74
2023/06/17 01:04:53;;;;;;;5.03;3.08;;;14.80;99.90;;;;;;5116450;28;20084;-74
2023/06/17 01:07:40;;;;;;;6.55;3.78;;;14.80;99.90;;;;;;5134893;28;20059;-74
2023/06/17 01:10:19;;;;;;;4.88;3.40;;;14.80;99.90;;;;;;5134377;28;20039;-74
2023/06/17 01:12:47;;;;;;;4.65;3.58;;;14.80;99.90;;;;;;5116427;28;20070;-74
2023/06/17 01:15:16;;;;;;;4.97;3.28;;;14.80;99.90;;;;;;5134658;28;20035;-74
2023/06/17 01:17:46;;;;;;;6.15;3.78;;;14.80;99.90;;;;;;5134347;28;20039;-74
2023/06/17 01:20:17;;;;;;;7.07;3.67;;;14.80;99.90;;;;;;5115784;28;20433;-74
2023/06/17 01:22:45;;;;;;;6.97;4.22;;;14.80;99.90;;;;;;5115763;28;20062;-74
2023/06/17 01:25:13;;;;;;;6.55;4.40;;;14.70;99.90;;;;;;5133990;28;20391;-74
2023/06/17 01:27:39;;;;;;;4.60;3.58;;;14.70;99.90;;;;;;5134250;28;20124;-74
2023/06/17 01:30:05;;;;;;;4.35;3.35;;;14.60;99.90;;;;;;5134235;28;20035;-74
2023/06/17 01:32:31;;;;;;;4.15;3.63;;;14.60;99.90;;;;;;5133962;28;20039;-74
2023/06/17 01:35:02;;;;;;;4.00;3.53;;;14.50;99.90;;;;;;5115660;28;20143;-74
2023/06/17 01:37:48;;;;;;;5.47;3.70;;;14.40;99.90;;;;;;5134220;28;20027;-74
2023/06/17 01:40:20;;;;;;;4.07;3.30;;;14.30;99.90;;;;;;5134455;28;20035;-75
2023/06/17 01:42:48;;;;;;;6.07;3.67;;;14.20;99.90;;;;;;5115811;28;20035;-74
2023/06/17 01:45:14;;;;;;;4.45;3.47;;;14.10;99.90;;;;;;5135549;27;20457;-75
2023/06/17 01:47:41;;;;;;;6.32;3.47;;;14.10;99.90;;;;;;5137955;27;20065;-74
2023/06/17 01:50:07;;;;;;;7.22;3.30;;;14.00;99.90;;;;;;5137861;27;20027;-74
2023/06/17 01:52:34;;;;;;;4.85;3.80;;;13.90;99.90;;;;;;5137875;27;20062;-74
2023/06/17 01:55:00;;;;;;;4.03;3.40;;;13.90;99.90;;;;;;5137612;27;20063;-75
2023/06/17 01:57:26;;;;;;;4.85;3.72;;;13.80;99.90;;;;;;5137744;27;20096;-75
2023/06/17 01:59:55;;;;;;;5.93;3.85;;;13.70;99.90;;;;;;5119373;27;20450;-75
2023/06/17 02:02:22;;;;;;;5.88;4.10;;;13.60;99.90;;;;;;5137408;27;20038;-76
2023/06/17 02:04:47;;;;;;;4.85;4.13;;;13.60;99.90;;;;;;5119240;27;20064;-75
2023/06/17 02:07:16;;;;;;;4.45;3.17;;;13.60;99.90;;;;;;5119020;27;20031;-74
2023/06/17 02:09:42;;;;;;;6.88;4.30;;;13.50;99.90;;;;;;5137349;27;20447;-75
2023/06/17 02:12:08;;;;;;;6.97;4.28;;;13.50;99.90;;;;;;5137268;27;20035;-75
2023/06/17 02:14:33;;;;;;;8.77;4.47;;;13.50;99.90;;;;;;5137502;27;20087;-74
2023/06/17 02:17:00;;;;;;;7.03;4.47;;;13.50;99.90;;;;;;5137455;27;20073;-74
2023/06/17 02:19:28;;;;;;;7.63;4.55;;;13.50;99.90;;;;;;5136816;27;20039;-75
2023/06/17 02:21:55;;;;;;;9.75;5.15;;;13.50;99.90;;;;;;5137113;27;20023;-74
2023/06/17 02:24:21;;;;;;;5.20;4.22;;;13.60;99.90;;;;;;5119187;27;20380;-74
2023/06/17 02:26:49;;;;;;;6.00;4.68;;;13.70;99.90;;;;;;5137220;27;20031;-74
2023/06/17 02:29:15;;;;;;;6.10;4.65;;;13.70;99.90;;;;;;5118623;27;20043;-74
2023/06/17 02:31:41;;;;;;;6.43;4.45;;;13.70;99.90;;;;;;5137146;27;20116;-74
2023/06/17 02:34:07;;;;;;;6.82;4.38;;;13.80;99.90;;;;;;5136860;27;20066;-74
2023/06/17 02:36:32;;;;;;;5.60;4.10;;;13.80;99.90;;;;;;5118900;27;20035;-74
2023/06/17 02:38:59;;;;;;;6.97;4.35;;;13.80;99.90;;;;;;5136962;27;20039;-74
2023/06/17 02:41:25;;;;;;;7.00;5.10;;;13.80;99.90;;;;;;5117968;27;20064;-74
2023/06/17 02:43:51;;;;;;;5.93;4.10;;;13.80;99.90;;;;;;5136602;27;20032;-74
2023/06/17 02:46:16;;;;;;;5.65;4.72;;;13.90;99.90;;;;;;5118198;27;20396;-74
2023/06/17 02:48:42;;;;;;;7.85;5.05;;;14.00;99.90;;;;;;5136553;27;20027;-74
2023/06/17 02:51:09;;;;;;;5.88;4.47;;;14.00;99.90;;;;;;5118200;27;20460;-74
2023/06/17 02:53:35;;;;;;;6.00;4.78;;;14.00;99.90;;;;;;5118057;27;20385;-74
2023/06/17 02:56:00;;;;;;;8.80;5.22;;;14.00;99.90;;;;;;5136286;27;20046;-75
2023/06/17 02:58:26;;;;;;;6.00;4.70;;;14.10;99.90;;;;;;5135827;27;20110;-74
2023/06/17 03:00:55;;;;;;;7.45;5.30;;;14.10;99.90;;;;;;5136016;27;20494;-74
2023/06/17 03:03:33;;;;;;;5.93;4.10;;;14.10;99.90;;;;;;5135898;27;20476;-74
2023/06/17 03:06:05;;;;;;;7.43;5.07;;;14.10;99.90;;;;;;5117912;27;20506;-74
2023/06/17 03:08:32;;;;;;;4.63;4.13;;;14.00;99.90;;;;;;5136198;27;20034;-74
2023/06/17 03:10:59;;;;;;;6.65;4.63;;;14.00;99.90;;;;;;5135828;27;20033;-76
2023/06/17 03:13:25;;;;;;;4.70;4.20;;;13.90;99.90;;;;;;5117729;27;20125;-74
2023/06/17 03:15:53;;;;;;;6.55;4.55;;;13.90;99.90;;;;;;5117607;27;20031;-74
2023/06/17 03:18:20;;;;;;;6.50;5.07;;;13.90;99.90;;;;;;5136033;27;20533;-74
2023/06/17 03:20:46;;;;;;;6.60;4.53;;;14.00;99.90;;;;;;5135505;27;20053;-74
2023/06/17 03:23:15;;;;;;;5.68;4.65;;;14.00;99.90;;;;;;5135427;27;20544;-74
2023/06/17 03:25:41;;;;;;;5.88;4.85;;;14.10;99.90;;;;;;5135794;27;20030;-74
2023/06/17 03:28:06;;;;;;;7.13;4.95;;;14.20;99.90;;;;;;5136073;27;20031;-74
2023/06/17 03:30:32;;;;;;;6.22;4.50;;;14.20;99.90;;;;;;5135722;27;20027;-74
2023/06/17 03:32:58;;;;;;;5.32;4.32;;;14.30;99.90;;;;;;5135902;27;20035;-74
2023/06/17 03:35:24;;;;;;;7.45;5.03;;;14.40;99.90;;;;;;5117375;27;20027;-74
2023/06/17 03:37:50;;;;;;;5.70;4.40;;;14.50;99.90;;;;;;5117557;27;20031;-74
2023/06/17 03:40:16;;;;;;;9.23;5.35;;;14.50;99.90;;;;;;5135525;27;20046;-74
2023/06/17 03:42:41;;;;;;;7.18;4.90;;;14.60;99.90;;;;;;5135719;27;20464;-74
2023/06/17 03:45:07;;;;;;;6.90;4.85;;;14.70;99.90;;;;;;5135508;27;20035;-74
2023/06/17 03:47:33;;;;;;;5.78;4.25;;;14.70;99.90;;;;;;5135189;27;20035;-74
2023/06/17 03:49:59;;;;;;;7.75;4.82;;;14.80;99.90;;;;;;5135571;27;20039;-73
2023/06/17 03:52:25;;;;;;;8.80;5.28;;;14.90;99.90;;;;;;5135562;27;20039;-74
2023/06/17 03:54:50;;;;;;;6.93;5.18;;;14.90;99.90;;;;;;5135301;27;20027;-74
2023/06/17 03:57:16;;;;;;;9.25;4.78;;;15.00;99.90;;;;;;5135274;27;20072;-74
2023/06/17 03:59:42;;;;;;;6.20;4.88;;;15.00;99.90;;;;;;5116795;27;20487;-74
2023/06/17 04:02:08;;;;;;;5.18;4.63;;;15.10;99.90;;;;;;5116674;27;20027;-73
2023/06/17 04:04:34;;;;;;;7.78;5.15;;;15.10;99.90;;;;;;5135125;27;20025;-74
2023/06/17 04:07:03;;;;;;;8.07;5.10;;;15.20;99.90;;;;;;5135099;27;20038;-74
2023/06/17 04:09:28;;;;;;;7.85;5.22;;;15.20;99.90;;;;;;5116267;27;20039;-74
2023/06/17 04:11:54;;;;;;;8.70;5.10;;;15.30;99.90;;;;;;5134992;27;20031;-74
2023/06/17 04:14:20;;;;;;;8.43;5.03;;;15.30;99.90;;;;;;5116821;27;20430;-74
2023/06/17 04:16:45;;;;;;;9.63;5.30;;;15.30;99.90;;;;;;5135073;27;20387;-74
2023/06/17 04:19:13;;;;;;;7.95;4.93;;;15.40;99.90;;;;;;5134873;27;20051;-75
2023/06/17 04:21:42;;;;;;;5.53;4.80;;;15.50;99.90;;;;;;5134844;27;20062;-75
2023/06/17 04:24:07;;;;;;;7.82;5.10;;;15.50;99.90;;;;;;5134833;27;20062;-75
2023/06/17 04:26:33;;;;;;;6.57;4.88;;;15.50;99.90;;;;;;5134842;27;20035;-74
2023/06/17 04:29:02;;;;;;;7.75;5.05;;;15.60;99.90;;;;;;5116346;28;20042;-74
2023/06/17 04:31:27;;;;;;;5.70;4.63;;;15.70;99.90;;;;;;5134986;27;20031;-75
2023/06/17 04:33:56;;;;;;;8.80;5.63;;;15.80;99.90;;;;;;5135228;28;20050;-74
2023/06/17 04:36:24;;;;;;;8.70;5.90;;;15.80;99.90;;;;;;5134665;28;20461;-74
2023/06/17 04:38:51;;;;;;;7.25;5.57;;;15.80;99.90;;;;;;5116200;28;20081;-74
2023/06/17 04:41:16;;;;;;;8.85;6.38;;;15.90;99.90;;;;;;5116429;28;20027;-75
2023/06/17 04:43:45;;;;;;;8.43;5.45;;;15.90;99.90;;;;;;5134770;28;20096;-74
2023/06/17 04:46:12;;;;;;;8.10;5.63;;;15.90;99.90;;;;;;5134602;28;20024;-74
2023/06/17 04:48:38;;;;;;;7.80;5.88;;;15.90;99.90;;;;;;5116156;28;20297;-74
2023/06/17 04:51:05;;;;;;;9.80;5.55;;;16.00;99.90;;;;;;5116081;28;20463;-74
2023/06/17 04:53:31;;;;;;;7.07;4.95;;;16.00;99.90;;;;;;5134821;28;20039;-74
2023/06/17 04:55:57;;;;;;;9.80;5.57;;;16.00;99.90;;;;;;5116108;28;20382;-74
2023/06/17 04:58:23;;;;;;;5.30;4.43;;;16.10;99.90;;;;;;5134570;28;20023;-74
2023/06/17 05:00:48;;;;;;;6.38;5.25;;;16.20;99.90;;;;;;5116087;28;20035;-74
2023/06/17 05:03:14;;;;;;;8.73;5.10;;;16.30;99.90;;;;;;5134100;28;20468;-74
2023/06/17 05:05:40;;;;;;;9.70;5.70;;;16.30;99.90;;;;;;5116080;28;20027;-74
2023/06/17 05:08:05;;;;;;;6.72;4.90;;;16.30;99.90;;;;;;5134132;28;20058;-75
2023/06/17 05:10:31;;;;;;;6.10;5.10;;;16.30;99.90;;;;;;5115972;28;20038;-75
2023/06/17 05:12:57;;;;;;;7.70;5.20;;;16.40;99.90;;;;;;5115961;28;20039;-79
2023/06/17 05:15:22;;;;;;;8.30;5.53;;;16.40;99.90;;;;;;5116124;28;20034;-74
2023/06/17 05:17:48;;;;;;;6.72;5.18;;;16.40;99.90;;;;;;5134287;28;20054;-73
2023/06/17 05:20:14;;;;;;;7.07;4.93;;;16.40;99.90;;;;;;5134792;27;20043;-73
2023/06/17 05:22:39;;;;;;;5.40;4.88;;;16.40;99.90;;;;;;5119876;27;20055;-74
2023/06/17 05:25:06;;;;;;;6.88;5.22;;;16.40;99.90;;;;;;5119763;27;20031;-73
2023/06/17 05:27:32;;;;;;;7.43;5.13;;;16.50;99.90;;;;;;5119698;27;20038;-73
2023/06/17 05:29:58;;;;;;;7.85;6.03;;;16.50;99.90;;;;;;5137755;27;20383;-73
2023/06/17 05:32:24;;;;;;;8.32;5.47;;;16.50;99.90;;;;;;5137718;27;20039;-73
2023/06/17 05:34:50;;;;;;;6.43;5.30;;;16.50;99.90;;;;;;5138138;27;20031;-74
2023/06/17 05:37:16;;;;;;;9.05;5.20;;;16.60;99.90;;;;;;5137575;27;20031;-73
2023/06/17 05:39:41;;;;;;;10.88;5.60;;;16.60;99.90;;;;;;5137895;27;20031;-73
2023/06/17 05:42:07;;;;;;;6.80;4.43;;;16.70;99.90;;;;;;5137756;27;20388;-73
2023/06/17 05:44:33;;;;;;;4.75;4.35;;;16.80;99.90;;;;;;5138320;27;20476;-73
2023/06/17 05:46:58;;;;;;;5.65;4.18;;;16.90;99.90;;;;;;5119314;27;20042;-74
2023/06/17 05:49:24;;;;;;;5.63;3.78;;;17.00;99.90;;;;;;5119372;27;20062;-74
2023/06/17 05:51:49;;;;;;;4.72;3.67;;;17.00;99.90;;;;;;5137591;27;20519;-72
2023/06/17 05:54:15;;;;;;;4.55;3.78;;;17.10;99.90;;;;;;5137587;27;20050;-71
2023/06/17 05:56:41;;;;;;;5.05;3.20;;;17.20;99.90;;;;;;5119762;27;20061;-74
2023/06/17 05:59:06;;;;;;;8.05;3.75;;;17.40;99.90;;;;;;5137541;27;20353;-75
2023/06/17 06:01:32;;;;;;;5.43;3.60;;;17.50;99.90;;;;;;5119448;27;20392;-74
2023/06/17 06:03:57;;;;;;;4.63;3.65;;;17.70;99.90;;;;;;5137588;27;20035;-74
2023/06/17 06:06:23;;;;;;;5.25;4.75;;;17.90;99.90;;;;;;5137742;27;20036;-74
2023/06/17 06:08:49;;;;;;;4.68;3.72;;;18.00;99.90;;;;;;5137583;27;20035;-74
2023/06/17 06:11:14;;;;;;;4.85;4.30;;;18.00;99.90;;;;;;5136938;27;20034;-74
2023/06/17 06:13:40;;;;;;;6.47;3.92;;;18.00;99.90;;;;;;5118979;27;20031;-74
2023/06/17 06:16:05;;;;;;;5.55;3.90;;;17.90;99.90;;;;;;5137314;27;20067;-73
2023/06/17 06:18:31;;;;;;;3.92;3.28;;;18.00;99.90;;;;;;5118726;27;20027;-64
2023/06/17 06:20:57;;;;;;;6.38;3.85;;;18.40;99.90;;;;;;5136601;27;20126;-65
2023/06/17 06:23:22;;;;;;;4.28;3.47;;;18.90;99.90;;;;;;5137087;27;20046;-64
2023/06/17 06:25:48;;;;;;;6.00;4.20;;;19.40;99.90;;;;;;5137121;27;20384;-62
2023/06/17 06:28:13;;;;;;;5.57;3.47;;;19.80;99.90;;;;;;5136762;27;20035;-62
2023/06/17 06:30:39;;;;;;;4.70;2.97;;;20.10;99.90;;;;;;5136215;27;20465;-62
2023/06/17 06:33:05;;;;;;;3.45;3.15;;;20.40;99.90;;;;;;5136835;27;20035;-62
2023/06/17 06:35:31;;;;;;;3.38;3.05;;;20.50;99.70;;;;;;5136794;27;20472;-63
2023/06/17 06:37:57;;;;;;;3.80;3.33;;;20.40;99.20;;;;;;5136883;27;20080;-62
2023/06/17 06:40:22;;;;;;;3.65;3.10;;;20.40;99.00;;;;;;5136648;27;20035;-62
2023/06/17 06:42:48;;;;;;;3.00;2.53;;;20.70;99.30;;;;;;5136856;27;20464;-62
2023/06/17 06:45:14;;;;;;;2.78;2.50;;;21.10;97.60;;;;;;5136451;27;20059;-62
2023/06/17 06:47:39;;;;;;;2.78;2.55;;;21.30;96.80;;;;;;5136757;27;20031;-62
2023/06/17 06:50:05;;;;;;;3.53;3.10;;;21.30;96.00;;;;;;5136757;27;20368;-64
2023/06/17 06:52:31;;;;;;;2.70;2.30;;;21.40;95.50;;;;;;5136287;27;20433;-61
2023/06/17 06:54:57;;;;;;;3.65;2.17;;;21.60;95.50;;;;;;5136375;27;20070;-64
2023/06/17 06:57:22;;;;;;;2.80;2.20;;;21.60;93.40;;;;;;5136312;27;20468;-63
2023/06/17 06:59:48;;;;;;;4.00;2.08;;;21.50;93.00;;;;;;5136232;27;20032;-62
2023/06/17 07:02:13;;;;;;;2.78;2.00;;;21.20;93.00;;;;;;5117940;27;20031;-62
2023/06/17 07:04:39;;;;;;;3.78;2.22;;;21.10;94.20;;;;;;5136225;27;20476;-69
2023/06/17 07:07:05;;;;;;;3.35;2.22;;;21.60;93.40;;;;;;5136029;27;20027;-69
2023/06/17 07:09:31;;;;;;;2.67;2.20;;;21.80;91.00;;;;;;5136149;27;20140;-68
2023/06/17 07:11:56;;;;;;;3.00;2.03;;;21.60;90.60;;;;;;5135927;27;20038;-70
2023/06/17 07:14:22;;;;;;;2.80;2.30;;;21.40;90.40;;;;;;5135980;27;20487;-70
2023/06/17 07:16:48;;;;;;;2.50;2.20;;;21.40;90.20;;;;;;5117184;27;20046;-70
2023/06/17 07:19:13;;;;;;;4.07;1.90;;;21.40;90.60;;;;;;5135533;27;20043;-68
2023/06/17 07:21:39;;;;;;;2.58;2.38;;;21.50;90.80;;;;;;5135781;27;20034;-68
2023/06/17 07:24:05;;;;;;;4.28;2.13;;;21.80;90.00;;;;;;5135378;27;20465;-69
2023/06/17 07:26:30;;;;;;;3.22;2.00;;;22.00;89.00;;;;;;5135724;27;20027;-69
2023/06/17 07:28:56;;;;;;;2.17;1.90;;;21.80;89.50;;;;;;5135598;27;20031;-71
2023/06/17 07:31:22;;;;;;;2.70;2.22;;;21.60;89.80;;;;;;5135625;27;20035;-71
2023/06/17 07:33:48;;;;;;;4.03;2.40;;;21.70;88.40;;;;;;5135789;27;20474;-69
2023/06/17 07:36:14;;;;;;;2.08;1.83;;;21.90;88.80;;;;;;5135250;27;20027;-72
2023/06/17 07:38:39;;;;;;;5.15;2.13;;;22.00;88.90;;;;;;5117127;27;20031;-70
2023/06/17 07:41:05;;;;;;;3.08;2.33;;;22.10;87.70;;;;;;5117082;27;20027;-71
2023/06/17 07:43:31;;;;;;;2.33;2.13;;;22.00;87.10;;;;;;5134429;27;20046;-70
2023/06/17 07:45:57;;;;;;;3.05;2.30;;;22.10;87.90;;;;;;5135335;27;20031;-69
2023/06/17 07:48:22;;;;;;;2.85;2.10;;;22.50;86.90;;;;;;5135610;27;20456;-70
2023/06/17 07:50:48;;;;;;;3.67;2.10;;;23.00;85.00;;;;;;5116794;27;20042;-68
2023/06/17 07:53:14;;;;;;;3.92;2.35;;;23.10;83.90;;;;;;5134799;27;20109;-70
2023/06/17 07:55:39;;;;;;;2.85;2.47;;;23.30;83.90;;;;;;5135111;27;20088;-69
2023/06/17 07:58:05;;;;;;;3.10;2.33;;;23.40;82.60;;;;;;5117239;27;20076;-68
2023/06/17 08:00:31;;;;;;;5.90;2.28;;;23.30;81.00;;;;;;5116636;27;20031;-70
2023/06/17 08:02:56;;;;;;;2.20;2.00;;;23.50;82.40;;;;;;5116595;27;20039;-70
2023/06/17 08:05:22;;;;;;;5.03;2.17;;;23.70;80.10;;;;;;5134708;27;20360;-70
2023/06/17 08:07:48;;;;;;;2.30;2.10;;;23.40;81.00;;;;;;5135099;27;20031;-70
2023/06/17 08:10:13;;;;;;;2.20;2.00;;;23.70;81.80;;;;;;5116532;27;20035;-70
2023/06/17 08:12:39;;;;;;;3.15;2.10;;;24.10;79.90;;;;;;5134637;27;20091;-63
2023/06/17 08:15:05;;;;;;;6.70;2.53;;;24.40;79.20;;;;;;5134784;27;20031;-64
2023/06/17 08:17:31;;;;;;;3.70;2.03;;;24.20;77.30;;;;;;5134591;27;20379;-64
2023/06/17 08:19:57;;;;;;;2.83;2.63;;;24.20;77.30;;;;;;5134612;27;20043;-64
2023/06/17 08:22:23;;;;;;;5.35;2.67;;;23.80;74.80;;;;;;5134513;27;20481;-64
2023/06/17 08:24:48;;;;;;;4.60;2.63;;;23.30;75.00;;;;;;5134679;27;20541;-68
2023/06/17 08:27:14;;;;;;;2.45;2.25;;;23.40;76.70;;;;;;5134777;27;20499;-64
2023/06/17 08:29:40;;;;;;;5.53;3.03;;;23.90;74.90;;;;;;5134725;27;20031;-63
2023/06/17 08:32:06;;;;;;;4.65;2.72;;;24.40;74.60;;;;;;5134597;27;20080;-63
2023/06/17 08:34:32;;;;;;;2.60;2.40;;;25.00;73.70;;;;;;5134882;28;20031;-64
2023/06/17 08:37:04;;;;;;;5.55;3.00;;;25.40;70.10;;;;;;5134587;28;20036;-64
2023/06/17 08:39:31;;;;;;;15.00;3.60;;;25.60;70.70;;;;;;5135039;28;20043;-64
2023/06/17 08:41:57;;;;;;;20.33;3.17;;;26.10;68.30;;;;;;5116276;28;20417;-63
2023/06/17 08:44:25;;;;;;;2.83;1.98;;;26.50;66.40;;;;;;5134407;28;20095;-64
2023/06/17 08:46:52;;;;;;;5.13;2.75;;;26.90;64.20;;;;;;5116146;28;20038;-64
2023/06/17 08:49:19;;;;;;;9.88;2.40;;;26.90;63.50;;;;;;5134809;28;20027;-64
2023/06/17 08:51:49;;;;;;;5.30;2.33;;;27.20;63.10;;;;;;5116510;28;20191;-63
2023/06/17 08:54:15;;;;;;;3.67;2.70;;;26.90;61.10;;;;;;5135797;27;20476;-65
2023/06/17 08:56:42;;;;;;;4.28;2.72;;;26.90;61.40;;;;;;5138335;27;20113;-64
2023/06/17 08:59:08;;;;;;;4.50;2.65;;;26.60;60.00;;;;;;5138373;27;20031;-66
2023/06/17 09:01:36;;;;;;;5.57;2.35;;;26.40;60.00;;;;;;5120140;27;20031;-71
2023/06/17 09:04:02;;;;;;;4.78;2.53;;;26.70;60.80;;;;;;5138844;27;20096;-73
2023/06/17 09:06:28;;;;;;;4.43;2.58;;;26.70;60.20;;;;;;5120310;27;20549;-72
2023/06/17 09:08:58;;;;;;;2.67;2.35;;;26.60;59.60;;;;;;5120002;27;20388;-73
2023/06/17 09:11:28;;;;;;;3.67;2.58;;;26.00;60.10;;;;;;5138099;27;20529;-72
2023/06/17 09:13:55;;;;;;;3.45;2.80;;;25.30;63.00;;;;;;5138180;27;20078;-73
2023/06/17 09:16:34;;;;;;;4.18;3.03;;;24.40;63.30;;;;;;5138326;27;20110;-73
2023/06/17 09:19:09;;;;;;;4.03;2.90;;;24.00;63.80;;;;;;5138829;27;20043;-72
2023/06/17 09:21:35;;;;;;;4.05;2.60;;;23.70;66.00;;;;;;5138161;27;20093;-73
2023/06/17 09:24:05;;;;;;;4.57;2.70;;;23.60;64.90;;;;;;5138090;27;20084;-71
2023/06/17 09:26:33;;;;;;;3.08;2.78;;;23.60;66.00;;;;;;5138420;27;20031;-71
2023/06/17 09:29:06;;;;;;;8.88;2.70;;;23.60;64.40;;;;;;5138059;27;20036;-71
2023/06/17 09:31:33;;;;;;;4.65;2.55;;;24.00;63.80;;;;;;5138232;27;20102;-71
2023/06/17 09:34:03;;;;;;;3.40;2.45;;;24.00;64.30;;;;;;5138104;27;20032;-70
2023/06/17 09:36:29;;;;;;;3.13;2.58;;;24.10;62.90;;;;;;5119845;27;20533;-71
2023/06/17 09:38:55;;;;;;;2.85;2.65;;;23.80;62.30;;;;;;5137866;27;20035;-71
2023/06/17 09:41:23;;;;;;;4.00;2.53;;;24.60;63.30;;;;;;5137807;27;20042;-71
2023/06/17 09:43:52;;;;;;;3.10;2.35;;;25.20;59.70;;;;;;5119383;27;20050;-71
2023/06/17 09:46:29;;;;;;;3.33;2.80;;;25.00;59.10;;;;;;5137746;27;20034;-71
2023/06/17 09:48:55;;;;;;;2.88;2.42;;;24.60;60.00;;;;;;5137754;27;20031;-71
2023/06/17 09:51:23;;;;;;;3.80;2.92;;;24.20;60.20;;;;;;5119165;27;20035;-71
2023/06/17 09:53:51;;;;;;;3.97;2.90;;;24.00;61.30;;;;;;5119160;27;20035;-71
2023/06/17 09:56:18;;;;;;;5.13;2.80;;;24.00;61.00;;;;;;5119849;27;20408;-71
2023/06/17 09:58:44;;;;;;;3.28;2.50;;;24.20;61.50;;;;;;5119123;27;20031;-71
2023/06/17 10:01:11;;;;;;;2.95;2.65;;;24.00;61.20;;;;;;5137617;27;20041;-71
2023/06/17 10:03:39;;;;;;;2.58;2.38;;;23.90;60.90;;;;;;5137283;27;20031;-71
2023/06/17 10:06:05;;;;;;;4.25;2.70;;;24.10;60.40;;;;;;5136686;27;20031;-71
2023/06/17 10:08:34;;;;;;;3.35;2.95;;;24.30;58.90;;;;;;5119073;27;20037;-71
2023/06/17 10:11:00;;;;;;;3.00;2.70;;;23.90;60.30;;;;;;5118979;27;20065;-70
2023/06/17 10:13:28;;;;;;;6.40;2.83;;;23.50;60.70;;;;;;5137311;27;20092;-71
2023/06/17 10:15:55;;;;;;;5.00;2.70;;;23.70;61.40;;;;;;5137354;27;20035;-71
2023/06/17 10:18:23;;;;;;;5.45;2.72;;;24.10;59.90;;;;;;5137127;27;20027;-71
2023/06/17 10:20:50;;;;;;;2.95;2.65;;;25.20;59.00;;;;;;5118435;27;20134;-70
2023/06/17 10:23:19;;;;;;;6.38;2.83;;;26.50;58.00;;;;;;5118521;27;20078;-70
2023/06/17 10:25:45;;;;;;;3.35;2.78;;;27.80;54.30;;;;;;5118545;27;20140;-71
2023/06/17 10:28:13;;;;;;;2.95;2.65;;;27.70;53.90;;;;;;5136880;27;20075;-71
2023/06/17 10:30:43;;;;;;;3.00;2.65;;;27.70;53.40;;;;;;5136594;27;20050;-71
2023/06/17 10:33:09;;;;;;;2.80;2.60;;;27.50;54.00;;;;;;5136886;27;20472;-71
2023/06/17 10:35:43;;;;;;;3.95;2.75;;;27.00;53.80;;;;;;5118349;27;20042;-71
2023/06/17 10:38:10;;;;;;;4.85;2.88;;;26.30;54.00;;;;;;5118341;27;20042;-70
2023/06/17 10:40:54;;;;;;;5.38;3.00;;;26.30;54.00;;;;;;5136641;27;20480;-70
2023/06/17 10:43:20;;;;;;;3.40;3.03;;;26.40;54.30;;;;;;5136472;27;20040;-71
2023/06/17 10:45:56;;;;;;;2.83;2.63;;;26.70;53.70;;;;;;5136684;27;20449;-70
2023/06/17 10:48:27;;;;;;;3.55;3.03;;;26.70;53.10;;;;;;5136465;27;20027;-72
2023/06/17 10:50:56;;;;;;;3.45;2.85;;;26.90;51.60;;;;;;5117734;27;20031;-70
2023/06/17 10:53:30;;;;;;;4.05;2.78;;;27.40;50.40;;;;;;5136318;27;20118;-69
2023/06/17 10:55:57;;;;;;;3.55;2.60;;;26.80;50.90;;;;;;5136395;27;20110;-69
2023/06/17 10:58:29;;;;;;;3.53;2.95;;;26.50;53.20;;;;;;5136379;27;20102;-70
2023/06/17 11:01:13;;;;;;;4.85;2.85;;;26.00;53.90;;;;;;5136482;27;20353;-71
2023/06/17 11:03:40;;;;;;;4.75;2.78;;;25.50;57.90;;;;;;5117748;27;20468;-70
2023/06/17 11:06:08;;;;;;;3.80;3.38;;;24.90;60.80;;;;;;5136249;27;20031;-69
2023/06/17 11:08:35;;;;;;;5.32;3.05;;;24.60;62.80;;;;;;5136198;27;20062;-73
2023/06/17 11:11:14;;;;;;;5.03;3.40;;;24.10;63.40;;;;;;5117709;27;20046;-73
2023/06/17 11:13:42;;;;;;;4.18;2.92;;;24.50;62.60;;;;;;5135827;27;20518;-72
2023/06/17 11:16:08;;;;;;;3.38;2.85;;;25.30;60.90;;;;;;5135897;27;20437;-73
2023/06/17 11:18:39;;;;;;;4.05;3.00;;;25.40;60.30;;;;;;5116357;27;20495;-73
2023/06/17 11:21:06;;;;;;;4.57;3.10;;;25.60;60.10;;;;;;5117314;27;20051;-70
2023/06/17 11:23:33;;;;;;;7.80;3.03;;;25.70;60.20;;;;;;5135723;27;20087;-70
2023/06/17 11:25:59;;;;;;;3.75;2.95;;;25.60;60.10;;;;;;5135988;27;20091;-68
2023/06/17 11:28:25;;;;;;;4.90;2.92;;;26.20;61.10;;;;;;5135617;27;20114;-68
2023/06/17 11:30:51;;;;;;;4.20;3.33;;;27.20;59.10;;;;;;5135527;27;20054;-65
2023/06/17 11:33:23;;;;;;;10.02;3.15;;;28.10;57.50;;;;;;5135570;27;20038;-66
2023/06/17 11:35:51;;;;;;;4.65;3.20;;;28.90;56.50;;;;;;5135547;27;20123;-70
2023/06/17 11:38:18;;;;;;;4.82;3.17;;;29.50;52.60;;;;;;5117394;27;20035;-67
2023/06/17 11:40:44;;;;;;;5.10;2.97;;;28.50;53.10;;;;;;5135564;27;20023;-70
2023/06/17 11:43:10;;;;;;;3.13;2.75;;;27.70;54.20;;;;;;5135324;27;20073;-73
2023/06/17 11:45:37;;;;;;;2.92;2.58;;;28.00;56.80;;;;;;5117528;27;20036;-71
2023/06/17 11:48:06;;;;;;;2.90;2.63;;;28.70;53.80;;;;;;5116935;27;20034;-71
2023/06/17 11:50:39;;;;;;;3.85;3.00;;;28.30;53.50;;;;;;5132208;27;20366;-73
2023/06/17 11:53:05;;;;;;;4.82;2.88;;;27.60;54.60;;;;;;5093400;28;20049;-70
2023/06/17 11:55:33;;;;;;;5.35;2.78;;;27.00;54.70;;;;;;5093497;28;20028;-72
2023/06/17 11:58:00;;;;;;;3.30;2.83;;;26.00;55.30;;;;;;5111566;28;20023;-70
2023/06/17 12:00:26;;;;;;;3.00;2.70;;;25.50;57.30;;;;;;5111555;28;20027;-70
2023/06/17 12:02:54;;;;;;;3.80;2.97;;;26.60;56.80;;;;;;5111256;28;20031;-72
2023/06/17 12:05:20;;;;;;;3.00;2.58;;;27.60;54.30;;;;;;5093154;28;20020;-72
2023/06/17 12:07:46;;;;;;;6.03;2.83;;;27.20;53.70;;;;;;5111574;28;20054;-68
2023/06/17 12:10:12;;;;;;;5.32;3.03;;;26.80;54.30;;;;;;5111164;28;20040;-71
2023/06/17 12:12:39;;;;;;;4.85;3.05;;;26.30;56.70;;;;;;5092975;28;20024;-69
2023/06/17 12:15:07;;;;;;;3.25;2.90;;;26.10;56.30;;;;;;5111494;28;20464;-69
2023/06/17 12:17:40;;;;;;;3.75;2.88;;;25.80;57.10;;;;;;5111140;28;20137;-71
2023/06/17 12:20:15;;;;;;;5.10;3.25;;;25.90;57.10;;;;;;5092812;28;20468;-67
2023/06/17 12:22:41;;;;;;;6.10;3.40;;;26.60;56.70;;;;;;5111099;28;20024;-71
2023/06/17 12:25:07;;;;;;;7.35;3.63;;;27.30;57.10;;;;;;5111342;28;20023;-76
2023/06/17 12:27:33;;;;;;;6.10;3.42;;;26.70;58.10;;;;;;5110663;28;20385;-77
2023/06/17 12:30:01;;;;;;;4.05;3.20;;;26.40;58.40;;;;;;5110870;28;20035;-75
2023/06/17 12:32:28;;;;;;;5.68;2.90;;;26.80;58.10;;;;;;5110940;28;20042;-75
2023/06/17 12:34:54;;;;;;;3.55;3.03;;;27.30;57.60;;;;;;5111018;28;20028;-75
2023/06/17 12:37:26;;;;;;;4.20;2.80;;;27.20;56.50;;;;;;5092407;28;20119;-73
2023/06/17 12:39:52;;;;;;;2.15;1.95;;;27.30;55.20;;;;;;5110448;28;20592;-71
2023/06/17 12:42:18;;;;;;;3.50;1.83;;;27.00;52.00;;;;;;5092148;28;20028;-73
2023/06/17 12:44:44;;;;;;;3.33;1.90;;;26.60;52.50;;;;;;5110607;28;20031;-75